sensor_id;sensor_type;location;lat;lon;timestamp;temperature;humidity
51327;DHT22;37412;52.836;6.362;2023-03-14T00:02:01;10.30;99.90
51327;DHT22;37412;52.836;6.362;2023-03-14T00:04:47;10.20;99.90
51327;DHT22;37412;52.836;6.362;2023-03-14T00:07:35;10.20;99.90
51327;DHT22;37412;52.836;6.362;2023-03-14T00:10:22;10.30;99.90
51327;DHT22;37412;52.836;6.362;2023-03-14T00:13:08;10.30;99.90
51327;DHT22;37412;52.836;6.362;2023-03-14T00:15:53;10.30;99.90
51327;DHT22;37412;52.836;6.362;2023-03-14T00:18:40;10.40;99.90
51327;DHT22;37412;52.836;6.362;2023-03-14T00:21:26;10.50;99.90
51327;DHT22;37412;52.836;6.362;2023-03-14T00:24:13;10.50;99.90
51327;DHT22;37412;52.836;6.362;2023-03-14T00:26:59;10.50;99.90
51327;DHT22;37412;52.836;6.362;2023-03-14T00:29:45;10.50;99.90
51327;DHT22;37412;52.836;6.362;2023-03-14T00:32:30;10.50;99.90
51327;DHT22;37412;52.836;6.362;2023-03-14T00:35:16;10.60;99.90
51327;DHT22;37412;52.836;6.362;2023-03-14T00:38:02;10.60;99.90
51327;DHT22;37412;52.836;6.362;2023-03-14T00:40:48;10.70;99.90
51327;DHT22;37412;52.836;6.362;2023-03-14T00:43:34;10.70;99.90
51327;DHT22;37412;52.836;6.362;2023-03-14T00:46:20;10.80;99.90
51327;DHT22;37412;52.836;6.362;2023-03-14T00:49:06;10.90;99.90
51327;DHT22;37412;52.836;6.362;2023-03-14T00:51:52;10.90;99.90
51327;DHT22;37412;52.836;6.362;2023-03-14T00:54:38;10.90;99.90
51327;DHT22;37412;52.836;6.362;2023-03-14T00:57:24;10.90;99.90
51327;DHT22;37412;52.836;6.362;2023-03-14T01:00:11;10.90;99.90
51327;DHT22;37412;52.836;6.362;2023-03-14T01:02:58;10.90;99.90
51327;DHT22;37412;52.836;6.362;2023-03-14T01:05:44;10.80;99.90
51327;DHT22;37412;52.836;6.362;2023-03-14T01:08:29;10.80;99.90
51327;DHT22;37412;52.836;6.362;2023-03-14T01:11:20;10.70;99.90
51327;DHT22;37412;52.836;6.362;2023-03-14T01:14:06;10.70;99.90
51327;DHT22;37412;52.836;6.362;2023-03-14T01:16:52;10.60;99.90
51327;DHT22;37412;52.836;6.362;2023-03-14T01:19:38;10.50;99.90
51327;DHT22;37412;52.836;6.362;2023-03-14T01:22:24;10.60;99.90
51327;DHT22;37412;52.836;6.362;2023-03-14T01:25:13;10.40;99.90
51327;DHT22;37412;52.836;6.362;2023-03-14T01:27:59;10.40;99.90
51327;DHT22;37412;52.836;6.362;2023-03-14T01:30:46;10.40;99.90
51327;DHT22;37412;52.836;6.362;2023-03-14T01:33:32;10.60;99.90
51327;DHT22;37412;52.836;6.362;2023-03-14T01:36:18;10.40;99.90
51327;DHT22;37412;52.836;6.362;2023-03-14T01:39:04;10.30;99.90
51327;DHT22;37412;52.836;6.362;2023-03-14T01:41:51;10.30;99.90
51327;DHT22;37412;52.836;6.362;2023-03-14T01:44:58;10.30;99.90
51327;DHT22;37412;52.836;6.362;2023-03-14T01:47:44;10.30;99.90
51327;DHT22;37412;52.836;6.362;2023-03-14T01:50:30;10.30;99.90
51327;DHT22;37412;52.836;6.362;2023-03-14T01:53:16;10.30;99.90
51327;DHT22;37412;52.836;6.362;2023-03-14T01:56:08;10.30;99.90
51327;DHT22;37412;52.836;6.362;2023-03-14T01:58:55;10.30;99.90
51327;DHT22;37412;52.836;6.362;2023-03-14T02:01:43;10.30;99.90
51327;DHT22;37412;52.836;6.362;2023-03-14T02:04:32;10.30;99.90
51327;DHT22;37412;52.836;6.362;2023-03-14T02:07:54;10.30;99.90
51327;DHT22;37412;52.836;6.362;2023-03-14T02:10:42;10.20;99.90
51327;DHT22;37412;52.836;6.362;2023-03-14T02:13:28;10.20;99.90
51327;DHT22;37412;52.836;6.362;2023-03-14T02:16:14;10.20;99.90
51327;DHT22;37412;52.836;6.362;2023-03-14T02:19:01;10.10;99.90
51327;DHT22;37412;52.836;6.362;2023-03-14T02:22:07;10.10;99.90
51327;DHT22;37412;52.836;6.362;2023-03-14T02:27:44;10.10;99.90
51327;DHT22;37412;52.836;6.362;2023-03-14T02:30:31;10.00;99.90
51327;DHT22;37412;52.836;6.362;2023-03-14T02:33:19;9.90;99.90
51327;DHT22;37412;52.836;6.362;2023-03-14T02:36:11;9.90;99.90
51327;DHT22;37412;52.836;6.362;2023-03-14T02:39:20;9.90;99.90
51327;DHT22;37412;52.836;6.362;2023-03-14T02:42:09;9.90;99.90
51327;DHT22;37412;52.836;6.362;2023-03-14T02:48:00;9.90;99.90
51327;DHT22;37412;52.836;6.362;2023-03-14T02:50:49;9.80;99.90
51327;DHT22;37412;52.836;6.362;2023-03-14T02:53:36;9.80;99.90
51327;DHT22;37412;52.836;6.362;2023-03-14T02:56:23;9.70;99.90
51327;DHT22;37412;52.836;6.362;2023-03-14T02:59:09;9.70;99.90
51327;DHT22;37412;52.836;6.362;2023-03-14T03:01:55;9.70;99.90
51327;DHT22;37412;52.836;6.362;2023-03-14T03:04:41;9.60;99.90
51327;DHT22;37412;52.836;6.362;2023-03-14T03:07:26;9.50;99.90
51327;DHT22;37412;52.836;6.362;2023-03-14T03:10:12;9.50;99.90
51327;DHT22;37412;52.836;6.362;2023-03-14T03:12:58;9.40;99.90
51327;DHT22;37412;52.836;6.362;2023-03-14T03:15:45;9.40;99.90
51327;DHT22;37412;52.836;6.362;2023-03-14T03:18:31;9.40;99.90
51327;DHT22;37412;52.836;6.362;2023-03-14T03:21:17;9.40;99.90
51327;DHT22;37412;52.836;6.362;2023-03-14T03:24:03;9.30;99.90
51327;DHT22;37412;52.836;6.362;2023-03-14T03:26:49;9.30;99.90
51327;DHT22;37412;52.836;6.362;2023-03-14T03:29:35;9.30;99.90
51327;DHT22;37412;52.836;6.362;2023-03-14T03:32:21;9.30;99.90
51327;DHT22;37412;52.836;6.362;2023-03-14T03:35:07;9.30;99.90
51327;DHT22;37412;52.836;6.362;2023-03-14T03:37:53;9.30;99.90
51327;DHT22;37412;52.836;6.362;2023-03-14T03:40:39;9.30;99.90
51327;DHT22;37412;52.836;6.362;2023-03-14T03:43:25;9.30;99.90
51327;DHT22;37412;52.836;6.362;2023-03-14T03:46:11;9.30;99.90
51327;DHT22;37412;52.836;6.362;2023-03-14T03:49:00;9.30;99.90
51327;DHT22;37412;52.836;6.362;2023-03-14T03:51:46;9.20;99.90
51327;DHT22;37412;52.836;6.362;2023-03-14T03:54:32;9.20;99.90
51327;DHT22;37412;52.836;6.362;2023-03-14T03:57:19;9.20;99.90
51327;DHT22;37412;52.836;6.362;2023-03-14T04:00:06;9.10;99.90
51327;DHT22;37412;52.836;6.362;2023-03-14T04:02:54;9.10;99.90
51327;DHT22;37412;52.836;6.362;2023-03-14T04:05:40;9.10;99.90
51327;DHT22;37412;52.836;6.362;2023-03-14T04:08:26;9.10;99.90
51327;DHT22;37412;52.836;6.362;2023-03-14T04:11:12;9.10;99.90
51327;DHT22;37412;52.836;6.362;2023-03-14T04:13:58;9.00;99.90
51327;DHT22;37412;52.836;6.362;2023-03-14T04:16:44;9.10;99.90
51327;DHT22;37412;52.836;6.362;2023-03-14T04:19:30;9.10;99.90
51327;DHT22;37412;52.836;6.362;2023-03-14T04:22:16;9.00;99.90
51327;DHT22;37412;52.836;6.362;2023-03-14T04:25:02;9.10;99.90
51327;DHT22;37412;52.836;6.362;2023-03-14T04:27:49;9.00;99.90
51327;DHT22;37412;52.836;6.362;2023-03-14T04:30:35;9.00;99.90
51327;DHT22;37412;52.836;6.362;2023-03-14T04:33:21;9.00;99.90
51327;DHT22;37412;52.836;6.362;2023-03-14T04:36:07;9.00;99.90
51327;DHT22;37412;52.836;6.362;2023-03-14T04:38:53;9.00;99.90
51327;DHT22;37412;52.836;6.362;2023-03-14T04:41:39;9.00;99.90
51327;DHT22;37412;52.836;6.362;2023-03-14T04:44:25;9.00;99.90
51327;DHT22;37412;52.836;6.362;2023-03-14T04:47:11;9.00;99.90
51327;DHT22;37412;52.836;6.362;2023-03-14T04:49:57;8.90;99.90
51327;DHT22;37412;52.836;6.362;2023-03-14T04:52:43;8.90;99.90
51327;DHT22;37412;52.836;6.362;2023-03-14T04:55:29;8.90;99.90
51327;DHT22;37412;52.836;6.362;2023-03-14T04:58:15;8.90;99.90
51327;DHT22;37412;52.836;6.362;2023-03-14T05:01:05;8.90;99.90
51327;DHT22;37412;52.836;6.362;2023-03-14T05:03:51;8.90;99.90
51327;DHT22;37412;52.836;6.362;2023-03-14T05:06:36;8.90;99.90
51327;DHT22;37412;52.836;6.362;2023-03-14T05:09:22;8.90;99.90
51327;DHT22;37412;52.836;6.362;2023-03-14T05:12:08;9.00;99.90
51327;DHT22;37412;52.836;6.362;2023-03-14T05:14:54;9.00;99.90
51327;DHT22;37412;52.836;6.362;2023-03-14T05:17:40;9.00;99.90
51327;DHT22;37412;52.836;6.362;2023-03-14T05:20:26;9.10;99.90
51327;DHT22;37412;52.836;6.362;2023-03-14T05:23:12;9.10;99.90
51327;DHT22;37412;52.836;6.362;2023-03-14T05:25:58;9.10;99.90
51327;DHT22;37412;52.836;6.362;2023-03-14T05:28:44;9.10;99.90
51327;DHT22;37412;52.836;6.362;2023-03-14T05:31:30;9.10;99.90
51327;DHT22;37412;52.836;6.362;2023-03-14T05:34:16;9.00;99.90
51327;DHT22;37412;52.836;6.362;2023-03-14T05:37:02;9.00;99.90
51327;DHT22;37412;52.836;6.362;2023-03-14T05:39:48;9.00;99.90
51327;DHT22;37412;52.836;6.362;2023-03-14T05:42:34;8.90;99.90
51327;DHT22;37412;52.836;6.362;2023-03-14T05:45:20;8.90;99.90
51327;DHT22;37412;52.836;6.362;2023-03-14T05:48:06;8.90;99.90
51327;DHT22;37412;52.836;6.362;2023-03-14T05:50:56;8.90;99.90
51327;DHT22;37412;52.836;6.362;2023-03-14T05:53:41;8.80;99.90
51327;DHT22;37412;52.836;6.362;2023-03-14T05:56:27;8.80;99.90
51327;DHT22;37412;52.836;6.362;2023-03-14T05:59:13;8.80;99.90
51327;DHT22;37412;52.836;6.362;2023-03-14T06:02:00;8.80;99.90
51327;DHT22;37412;52.836;6.362;2023-03-14T06:04:46;8.80;99.90
51327;DHT22;37412;52.836;6.362;2023-03-14T06:07:32;8.80;99.90
51327;DHT22;37412;52.836;6.362;2023-03-14T06:10:18;8.80;99.90
51327;DHT22;37412;52.836;6.362;2023-03-14T06:13:04;8.80;99.90
51327;DHT22;37412;52.836;6.362;2023-03-14T06:15:50;8.80;99.90
51327;DHT22;37412;52.836;6.362;2023-03-14T06:18:36;8.80;99.90
51327;DHT22;37412;52.836;6.362;2023-03-14T06:21:22;8.80;99.90
51327;DHT22;37412;52.836;6.362;2023-03-14T06:24:07;8.80;99.90
51327;DHT22;37412;52.836;6.362;2023-03-14T06:26:53;8.80;99.90
51327;DHT22;37412;52.836;6.362;2023-03-14T06:29:39;8.80;99.90
51327;DHT22;37412;52.836;6.362;2023-03-14T06:32:25;8.80;99.90
51327;DHT22;37412;52.836;6.362;2023-03-14T06:35:11;8.80;99.90
51327;DHT22;37412;52.836;6.362;2023-03-14T06:37:57;8.80;99.90
51327;DHT22;37412;52.836;6.362;2023-03-14T06:40:43;8.80;99.90
51327;DHT22;37412;52.836;6.362;2023-03-14T06:43:29;8.80;99.90
51327;DHT22;37412;52.836;6.362;2023-03-14T06:46:16;8.80;99.90
51327;DHT22;37412;52.836;6.362;2023-03-14T06:49:02;8.80;99.90
51327;DHT22;37412;52.836;6.362;2023-03-14T06:51:48;8.80;99.90
51327;DHT22;37412;52.836;6.362;2023-03-14T06:54:34;8.80;99.90
51327;DHT22;37412;52.836;6.362;2023-03-14T06:57:20;8.80;99.90
51327;DHT22;37412;52.836;6.362;2023-03-14T07:00:07;8.80;99.90
51327;DHT22;37412;52.836;6.362;2023-03-14T07:02:53;8.80;99.90
51327;DHT22;37412;52.836;6.362;2023-03-14T07:05:39;8.70;99.90
51327;DHT22;37412;52.836;6.362;2023-03-14T07:08:26;8.70;99.90
51327;DHT22;37412;52.836;6.362;2023-03-14T07:11:12;8.60;99.90
51327;DHT22;37412;52.836;6.362;2023-03-14T07:13:58;8.60;99.90
51327;DHT22;37412;52.836;6.362;2023-03-14T07:16:44;8.50;99.90
51327;DHT22;37412;52.836;6.362;2023-03-14T07:19:30;8.50;99.90
51327;DHT22;37412;52.836;6.362;2023-03-14T07:22:16;8.30;99.90
51327;DHT22;37412;52.836;6.362;2023-03-14T07:25:02;8.10;99.90
51327;DHT22;37412;52.836;6.362;2023-03-14T07:27:48;7.80;99.90
51327;DHT22;37412;52.836;6.362;2023-03-14T07:30:34;7.50;99.90
51327;DHT22;37412;52.836;6.362;2023-03-14T07:33:20;7.30;99.90
51327;DHT22;37412;52.836;6.362;2023-03-14T07:36:07;7.10;99.90
51327;DHT22;37412;52.836;6.362;2023-03-14T07:38:53;6.90;99.90
51327;DHT22;37412;52.836;6.362;2023-03-14T07:41:40;6.80;99.90
51327;DHT22;37412;52.836;6.362;2023-03-14T07:44:26;6.60;99.90
51327;DHT22;37412;52.836;6.362;2023-03-14T07:47:12;6.50;99.90
51327;DHT22;37412;52.836;6.362;2023-03-14T07:49:58;6.40;99.90
51327;DHT22;37412;52.836;6.362;2023-03-14T07:52:44;6.30;99.90
51327;DHT22;37412;52.836;6.362;2023-03-14T07:55:30;6.10;99.90
51327;DHT22;37412;52.836;6.362;2023-03-14T07:58:16;6.00;99.90
51327;DHT22;37412;52.836;6.362;2023-03-14T08:01:02;5.80;99.90
51327;DHT22;37412;52.836;6.362;2023-03-14T08:03:49;5.80;99.90
51327;DHT22;37412;52.836;6.362;2023-03-14T08:06:35;5.70;99.90
51327;DHT22;37412;52.836;6.362;2023-03-14T08:09:21;5.60;99.90
51327;DHT22;37412;52.836;6.362;2023-03-14T08:12:08;5.60;99.90
51327;DHT22;37412;52.836;6.362;2023-03-14T08:14:54;5.50;99.90
51327;DHT22;37412;52.836;6.362;2023-03-14T08:17:40;5.50;99.90
51327;DHT22;37412;52.836;6.362;2023-03-14T08:20:28;5.50;99.90
51327;DHT22;37412;52.836;6.362;2023-03-14T08:23:14;5.60;99.90
51327;DHT22;37412;52.836;6.362;2023-03-14T08:26:00;5.60;99.90
51327;DHT22;37412;52.836;6.362;2023-03-14T08:28:46;5.70;99.90
51327;DHT22;37412;52.836;6.362;2023-03-14T08:31:32;5.70;99.90
51327;DHT22;37412;52.836;6.362;2023-03-14T08:34:17;5.90;99.90
51327;DHT22;37412;52.836;6.362;2023-03-14T08:37:03;6.00;99.90
51327;DHT22;37412;52.836;6.362;2023-03-14T08:39:51;6.20;99.90
51327;DHT22;37412;52.836;6.362;2023-03-14T08:42:38;6.30;99.90
51327;DHT22;37412;52.836;6.362;2023-03-14T08:45:25;6.30;99.90
51327;DHT22;37412;52.836;6.362;2023-03-14T08:48:11;6.20;99.90
51327;DHT22;37412;52.836;6.362;2023-03-14T08:51:03;6.20;99.90
51327;DHT22;37412;52.836;6.362;2023-03-14T08:53:50;6.10;99.90
51327;DHT22;37412;52.836;6.362;2023-03-14T08:56:36;6.10;99.90
51327;DHT22;37412;52.836;6.362;2023-03-14T08:59:24;6.10;99.90
51327;DHT22;37412;52.836;6.362;2023-03-14T09:02:12;6.20;99.90
51327;DHT22;37412;52.836;6.362;2023-03-14T09:04:58;6.40;99.90
51327;DHT22;37412;52.836;6.362;2023-03-14T09:07:47;6.70;99.90
51327;DHT22;37412;52.836;6.362;2023-03-14T09:10:33;7.40;99.90
51327;DHT22;37412;52.836;6.362;2023-03-14T09:13:19;7.80;99.90
51327;DHT22;37412;52.836;6.362;2023-03-14T09:16:06;7.80;99.90
51327;DHT22;37412;52.836;6.362;2023-03-14T09:18:52;7.80;99.90
51327;DHT22;37412;52.836;6.362;2023-03-14T09:21:45;7.90;99.90
51327;DHT22;37412;52.836;6.362;2023-03-14T09:24:31;8.60;99.90
51327;DHT22;37412;52.836;6.362;2023-03-14T09:27:17;9.30;99.90
51327;DHT22;37412;52.836;6.362;2023-03-14T09:30:04;9.50;99.90
51327;DHT22;37412;52.836;6.362;2023-03-14T09:32:50;9.20;99.90
51327;DHT22;37412;52.836;6.362;2023-03-14T09:35:35;8.90;99.90
51327;DHT22;37412;52.836;6.362;2023-03-14T09:38:21;8.70;99.90
51327;DHT22;37412;52.836;6.362;2023-03-14T09:41:15;8.50;99.90
51327;DHT22;37412;52.836;6.362;2023-03-14T09:44:16;8.30;99.90
51327;DHT22;37412;52.836;6.362;2023-03-14T09:47:12;8.10;99.90
51327;DHT22;37412;52.836;6.362;2023-03-14T09:50:00;8.10;99.90
51327;DHT22;37412;52.836;6.362;2023-03-14T09:52:51;8.20;99.90
51327;DHT22;37412;52.836;6.362;2023-03-14T09:55:38;8.30;99.90
51327;DHT22;37412;52.836;6.362;2023-03-14T09:58:25;8.20;99.90
51327;DHT22;37412;52.836;6.362;2023-03-14T10:01:15;8.00;99.90
51327;DHT22;37412;52.836;6.362;2023-03-14T10:04:10;7.80;99.90
51327;DHT22;37412;52.836;6.362;2023-03-14T10:06:56;7.80;99.90
51327;DHT22;37412;52.836;6.362;2023-03-14T10:09:47;7.70;99.90
51327;DHT22;37412;52.836;6.362;2023-03-14T10:12:36;7.50;99.90
51327;DHT22;37412;52.836;6.362;2023-03-14T10:15:33;7.20;99.90
51327;DHT22;37412;52.836;6.362;2023-03-14T10:18:21;7.00;99.90
51327;DHT22;37412;52.836;6.362;2023-03-14T10:21:27;7.00;99.90
51327;DHT22;37412;52.836;6.362;2023-03-14T10:24:27;7.00;99.90
51327;DHT22;37412;52.836;6.362;2023-03-14T10:27:26;7.10;99.90
51327;DHT22;37412;52.836;6.362;2023-03-14T10:33:26;7.30;99.90
51327;DHT22;37412;52.836;6.362;2023-03-14T10:36:22;7.20;99.90
51327;DHT22;37412;52.836;6.362;2023-03-14T10:39:22;7.30;99.90
51327;DHT22;37412;52.836;6.362;2023-03-14T10:42:22;7.40;99.90
51327;DHT22;37412;52.836;6.362;2023-03-14T10:45:30;7.80;99.90
51327;DHT22;37412;52.836;6.362;2023-03-14T10:48:23;8.30;99.90
51327;DHT22;37412;52.836;6.362;2023-03-14T10:51:18;8.70;99.90
51327;DHT22;37412;52.836;6.362;2023-03-14T10:54:20;8.80;99.90
51327;DHT22;37412;52.836;6.362;2023-03-14T10:57:06;8.70;99.90
51327;DHT22;37412;52.836;6.362;2023-03-14T10:59:54;8.60;99.90
51327;DHT22;37412;52.836;6.362;2023-03-14T11:03:03;8.60;99.90
51327;DHT22;37412;52.836;6.362;2023-03-14T11:05:53;8.40;99.90
51327;DHT22;37412;52.836;6.362;2023-03-14T11:09:25;8.30;99.90
51327;DHT22;37412;52.836;6.362;2023-03-14T11:15:51;8.40;99.90
51327;DHT22;37412;52.836;6.362;2023-03-14T11:25:21;8.30;99.90
51327;DHT22;37412;52.836;6.362;2023-03-14T11:31:33;8.80;99.90
51327;DHT22;37412;52.836;6.362;2023-03-14T11:34:28;9.30;99.90
51327;DHT22;37412;52.836;6.362;2023-03-14T11:40:17;10.00;99.90
51327;DHT22;37412;52.836;6.362;2023-03-14T11:43:20;9.80;99.90
51327;DHT22;37412;52.836;6.362;2023-03-14T11:46:11;9.60;99.90
51327;DHT22;37412;52.836;6.362;2023-03-14T11:51:47;9.90;99.90
51327;DHT22;37412;52.836;6.362;2023-03-14T11:57:28;11.10;99.90
51327;DHT22;37412;52.836;6.362;2023-03-14T12:00:21;11.50;99.90
51327;DHT22;37412;52.836;6.362;2023-03-14T12:03:31;11.50;99.90
51327;DHT22;37412;52.836;6.362;2023-03-14T12:06:35;11.30;99.90
51327;DHT22;37412;52.836;6.362;2023-03-14T12:09:24;11.20;99.90
51327;DHT22;37412;52.836;6.362;2023-03-14T12:12:14;11.60;99.90
51327;DHT22;37412;52.836;6.362;2023-03-14T12:15:04;12.20;99.90
51327;DHT22;37412;52.836;6.362;2023-03-14T12:17:55;12.40;99.90
51327;DHT22;37412;52.836;6.362;2023-03-14T12:20:51;12.90;99.20
51327;DHT22;37412;52.836;6.362;2023-03-14T12:23:48;13.50;98.20
51327;DHT22;37412;52.836;6.362;2023-03-14T12:26:52;12.90;95.50
51327;DHT22;37412;52.836;6.362;2023-03-14T12:29:59;12.50;98.60
51327;DHT22;37412;52.836;6.362;2023-03-14T12:35:59;14.10;96.10
51327;DHT22;37412;52.836;6.362;2023-03-14T12:38:52;13.70;94.50
51327;DHT22;37412;52.836;6.362;2023-03-14T12:41:48;13.30;97.70
51327;DHT22;37412;52.836;6.362;2023-03-14T12:44:46;12.70;94.60
51327;DHT22;37412;52.836;6.362;2023-03-14T12:50:44;11.30;99.90
51327;DHT22;37412;52.836;6.362;2023-03-14T13:00:37;9.90;99.90
51327;DHT22;37412;52.836;6.362;2023-03-14T13:03:39;9.50;99.90
51327;DHT22;37412;52.836;6.362;2023-03-14T13:06:51;9.20;99.90
51327;DHT22;37412;52.836;6.362;2023-03-14T13:09:55;8.90;99.90
51327;DHT22;37412;52.836;6.362;2023-03-14T13:12:55;8.70;99.90
51327;DHT22;37412;52.836;6.362;2023-03-14T13:15:46;9.10;99.90
51327;DHT22;37412;52.836;6.362;2023-03-14T13:19:09;9.60;99.90
51327;DHT22;37412;52.836;6.362;2023-03-14T13:21:47;9.70;99.90
51327;DHT22;37412;52.836;6.362;2023-03-14T13:24:34;9.60;99.90
51327;DHT22;37412;52.836;6.362;2023-03-14T13:27:20;9.60;99.90
51327;DHT22;37412;52.836;6.362;2023-03-14T13:30:29;9.40;99.90
51327;DHT22;37412;52.836;6.362;2023-03-14T13:33:22;9.30;99.90
51327;DHT22;37412;52.836;6.362;2023-03-14T13:36:09;9.40;99.90
51327;DHT22;37412;52.836;6.362;2023-03-14T13:38:59;9.50;99.90
51327;DHT22;37412;52.836;6.362;2023-03-14T13:41:47;9.40;99.80
51327;DHT22;37412;52.836;6.362;2023-03-14T13:44:36;9.40;99.90
51327;DHT22;37412;52.836;6.362;2023-03-14T13:47:25;9.40;99.90
51327;DHT22;37412;52.836;6.362;2023-03-14T13:50:15;9.10;99.90
51327;DHT22;37412;52.836;6.362;2023-03-14T13:53:02;8.90;99.90
51327;DHT22;37412;52.836;6.362;2023-03-14T13:55:49;8.80;99.90
51327;DHT22;37412;52.836;6.362;2023-03-14T13:58:37;8.60;99.90
51327;DHT22;37412;52.836;6.362;2023-03-14T14:01:32;8.60;99.90
51327;DHT22;37412;52.836;6.362;2023-03-14T14:04:21;8.80;99.90
51327;DHT22;37412;52.836;6.362;2023-03-14T14:07:16;8.70;99.90
51327;DHT22;37412;52.836;6.362;2023-03-14T14:10:06;8.70;99.90
51327;DHT22;37412;52.836;6.362;2023-03-14T14:12:56;8.70;99.90
51327;DHT22;37412;52.836;6.362;2023-03-14T14:15:46;9.10;99.90
51327;DHT22;37412;52.836;6.362;2023-03-14T14:18:33;9.30;99.90
51327;DHT22;37412;52.836;6.362;2023-03-14T14:21:20;9.50;99.90
51327;DHT22;37412;52.836;6.362;2023-03-14T14:24:12;9.50;99.90
51327;DHT22;37412;52.836;6.362;2023-03-14T14:27:13;9.30;99.30
51327;DHT22;37412;52.836;6.362;2023-03-14T14:30:02;9.00;99.90
51327;DHT22;37412;52.836;6.362;2023-03-14T14:32:50;8.80;99.90
51327;DHT22;37412;52.836;6.362;2023-03-14T14:35:36;8.80;99.90
51327;DHT22;37412;52.836;6.362;2023-03-14T14:38:23;8.90;99.90
51327;DHT22;37412;52.836;6.362;2023-03-14T14:41:11;8.50;99.90
51327;DHT22;37412;52.836;6.362;2023-03-14T14:43:58;8.50;99.90
51327;DHT22;37412;52.836;6.362;2023-03-14T14:46:45;8.70;99.90
51327;DHT22;37412;52.836;6.362;2023-03-14T14:49:32;8.80;99.90
51327;DHT22;37412;52.836;6.362;2023-03-14T14:55:31;9.30;99.90
51327;DHT22;37412;52.836;6.362;2023-03-14T15:01:19;9.30;99.70
51327;DHT22;37412;52.836;6.362;2023-03-14T15:04:11;9.20;98.70
51327;DHT22;37412;52.836;6.362;2023-03-14T15:06:59;9.00;99.40
51327;DHT22;37412;52.836;6.362;2023-03-14T15:09:45;8.80;99.90
51327;DHT22;37412;52.836;6.362;2023-03-14T15:12:31;8.50;99.90
51327;DHT22;37412;52.836;6.362;2023-03-14T15:15:17;8.20;99.90
51327;DHT22;37412;52.836;6.362;2023-03-14T15:18:12;7.90;99.90
51327;DHT22;37412;52.836;6.362;2023-03-14T15:20:59;7.60;99.90
51327;DHT22;37412;52.836;6.362;2023-03-14T15:23:45;7.40;99.90
51327;DHT22;37412;52.836;6.362;2023-03-14T15:26:31;7.30;99.90
51327;DHT22;37412;52.836;6.362;2023-03-14T15:29:17;7.20;99.90
51327;DHT22;37412;52.836;6.362;2023-03-14T15:32:04;7.10;99.90
51327;DHT22;37412;52.836;6.362;2023-03-14T15:34:50;7.10;99.90
51327;DHT22;37412;52.836;6.362;2023-03-14T15:37:36;7.00;99.90
51327;DHT22;37412;52.836;6.362;2023-03-14T15:40:24;6.90;99.90
51327;DHT22;37412;52.836;6.362;2023-03-14T15:43:11;7.00;99.90
51327;DHT22;37412;52.836;6.362;2023-03-14T15:45:57;7.10;99.90
51327;DHT22;37412;52.836;6.362;2023-03-14T15:48:44;7.10;99.90
51327;DHT22;37412;52.836;6.362;2023-03-14T15:51:30;7.10;99.90
51327;DHT22;37412;52.836;6.362;2023-03-14T15:54:17;7.10;99.90
51327;DHT22;37412;52.836;6.362;2023-03-14T15:57:03;7.10;99.90
51327;DHT22;37412;52.836;6.362;2023-03-14T15:59:52;7.00;99.90
51327;DHT22;37412;52.836;6.362;2023-03-14T16:02:38;7.00;99.90
51327;DHT22;37412;52.836;6.362;2023-03-14T16:05:27;6.90;99.90
51327;DHT22;37412;52.836;6.362;2023-03-14T16:08:13;6.90;99.90
51327;DHT22;37412;52.836;6.362;2023-03-14T16:10:59;6.80;99.90
51327;DHT22;37412;52.836;6.362;2023-03-14T16:13:45;6.80;99.90
51327;DHT22;37412;52.836;6.362;2023-03-14T16:16:31;6.80;99.90
51327;DHT22;37412;52.836;6.362;2023-03-14T16:19:17;6.80;99.90
51327;DHT22;37412;52.836;6.362;2023-03-14T16:22:03;7.00;99.90
51327;DHT22;37412;52.836;6.362;2023-03-14T16:24:49;6.80;99.90
51327;DHT22;37412;52.836;6.362;2023-03-14T16:27:38;6.60;99.90
51327;DHT22;37412;52.836;6.362;2023-03-14T16:30:24;6.40;99.90
51327;DHT22;37412;52.836;6.362;2023-03-14T16:33:10;6.10;99.90
51327;DHT22;37412;52.836;6.362;2023-03-14T16:35:58;5.90;99.90
51327;DHT22;37412;52.836;6.362;2023-03-14T16:38:45;5.70;99.90
51327;DHT22;37412;52.836;6.362;2023-03-14T16:41:32;5.60;99.90
51327;DHT22;37412;52.836;6.362;2023-03-14T16:44:18;5.60;99.90
51327;DHT22;37412;52.836;6.362;2023-03-14T16:47:04;5.60;99.90
51327;DHT22;37412;52.836;6.362;2023-03-14T16:49:50;5.60;99.90
51327;DHT22;37412;52.836;6.362;2023-03-14T16:52:36;5.60;99.90
51327;DHT22;37412;52.836;6.362;2023-03-14T16:55:22;5.50;99.90
51327;DHT22;37412;52.836;6.362;2023-03-14T16:58:08;5.50;99.90
51327;DHT22;37412;52.836;6.362;2023-03-14T17:00:54;5.60;99.90
51327;DHT22;37412;52.836;6.362;2023-03-14T17:03:44;5.50;99.90
51327;DHT22;37412;52.836;6.362;2023-03-14T17:06:30;5.50;99.90
51327;DHT22;37412;52.836;6.362;2023-03-14T17:09:16;5.40;99.90
51327;DHT22;37412;52.836;6.362;2023-03-14T17:12:03;5.40;99.90
51327;DHT22;37412;52.836;6.362;2023-03-14T17:14:50;5.30;99.90
51327;DHT22;37412;52.836;6.362;2023-03-14T17:17:37;5.30;99.90
51327;DHT22;37412;52.836;6.362;2023-03-14T17:20:23;5.20;99.90
51327;DHT22;37412;52.836;6.362;2023-03-14T17:23:09;5.20;99.90
51327;DHT22;37412;52.836;6.362;2023-03-14T17:25:55;5.20;99.90
51327;DHT22;37412;52.836;6.362;2023-03-14T17:28:41;5.20;99.90
51327;DHT22;37412;52.836;6.362;2023-03-14T17:31:27;5.10;99.90
51327;DHT22;37412;52.836;6.362;2023-03-14T17:34:13;5.10;99.90
51327;DHT22;37412;52.836;6.362;2023-03-14T17:36:59;5.00;99.90
51327;DHT22;37412;52.836;6.362;2023-03-14T17:39:45;5.00;99.90
51327;DHT22;37412;52.836;6.362;2023-03-14T17:42:31;5.00;99.90
51327;DHT22;37412;52.836;6.362;2023-03-14T17:45:17;5.40;99.90
51327;DHT22;37412;52.836;6.362;2023-03-14T17:48:03;5.00;99.90
51327;DHT22;37412;52.836;6.362;2023-03-14T17:50:49;5.10;99.90
51327;DHT22;37412;52.836;6.362;2023-03-14T17:53:35;5.10;99.90
51327;DHT22;37412;52.836;6.362;2023-03-14T17:56:21;5.00;99.90
51327;DHT22;37412;52.836;6.362;2023-03-14T17:59:10;4.80;99.90
51327;DHT22;37412;52.836;6.362;2023-03-14T18:01:56;4.60;99.90
51327;DHT22;37412;52.836;6.362;2023-03-14T18:04:42;4.40;99.90
51327;DHT22;37412;52.836;6.362;2023-03-14T18:07:28;4.30;99.90
51327;DHT22;37412;52.836;6.362;2023-03-14T18:10:14;4.10;99.90
51327;DHT22;37412;52.836;6.362;2023-03-14T18:13:01;4.10;99.90
51327;DHT22;37412;52.836;6.362;2023-03-14T18:15:47;4.10;99.90
51327;DHT22;37412;52.836;6.362;2023-03-14T18:18:33;4.10;99.90
51327;DHT22;37412;52.836;6.362;2023-03-14T18:21:19;4.10;99.90
51327;DHT22;37412;52.836;6.362;2023-03-14T18:24:06;4.10;99.90
51327;DHT22;37412;52.836;6.362;2023-03-14T18:26:52;4.10;99.90
51327;DHT22;37412;52.836;6.362;2023-03-14T18:29:38;4.80;99.90
51327;DHT22;37412;52.836;6.362;2023-03-14T18:32:24;4.00;99.90
51327;DHT22;37412;52.836;6.362;2023-03-14T18:35:10;4.00;99.90
51327;DHT22;37412;52.836;6.362;2023-03-14T18:37:56;4.00;99.90
51327;DHT22;37412;52.836;6.362;2023-03-14T18:40:43;4.00;99.90
51327;DHT22;37412;52.836;6.362;2023-03-14T18:43:29;4.00;99.90
51327;DHT22;37412;52.836;6.362;2023-03-14T18:46:15;4.00;99.90
51327;DHT22;37412;52.836;6.362;2023-03-14T18:49:01;4.00;99.90